Date TemperatureHighC TemperatureAvgC TemperatureLowC DewpointHighC DewpointAvgC DewpointLowC HumidityHigh HumidityAvg HumidityLow PressureMaxhPa PressureMinhPa WindSpeedMaxKMH WindSpeedAvgKMH GustSpeedMaxKMH PrecipitationSumCM
2016-12-31 14.0 6.4 -1.1 -0.2 -4.8 -9.6 79 55 25 1033 1028 3 0 8 0.00
2017-1-1 13.7 6.1 -1.6 7.1 1.2 -5.4 81 71 53 1028 1024 8 0 11 0.00
2017-1-2 14.3 11.1 7.9 10.4 7.9 5.6 94 88 76 1024 1017 5 1 11 0.15
2017-1-3 11.0 5.4 -0.3 9.0 5.1 -1.7 95 82 61 1020 1014 16 2 29 0.41
2017-1-4 10.3 4.1 -2.1 4.7 0.3 -4.2 93 75 46 1020 1008 6 0 10 0.00
2017-1-5 9.6 6.0 2.4 5.8 -6.1 -13.2 86 43 21 1021 1008 21 3 34 0.00
2017-1-6 4.4 -0.6 -5.7 -5.9 -8.7 -12.0 84 53 32 1029 1021 16 1 24 0.00
2017-1-7 4.2 -0.7 -5.5 -7.8 -9.5 -11.6 72 50 38 1030 1027 11 1 19 0.00
2017-1-8 4.2 2.3 0.4 -0.8 -5.4 -8.5 73 57 48 1027 1021 11 1 23 0.00
2017-1-9 10.2 3.2 -3.8 1.4 -2.6 -5.5 90 73 48 1024 1017 5 0 11 0.00
2017-1-10 7.3 3.4 -0.4 1.4 -2.6 -6.6 89 64 50 1017 1008 23 3 27 0.00
2017-1-11 7.9 3.3 -1.3 -3.4 -5.7 -7.6 80 60 38 1021 1013 10 1 18 0.00
2017-1-12 12.2 7.3 2.4 8.1 3.2 -4.1 92 74 61 1021 1013 11 2 18 0.00
2017-1-13 13.1 7.9 2.9 12.2 4.1 -5.6 96 74 43 1013 999 27 3 53 0.10
2017-1-14 11.7 5.7 -0.4 1.4 -3.2 -8.9 79 54 37 1010 1005 6 0 11 0.00
2017-1-15 7.6 5.5 3.4 0.1 -2.6 -5.2 73 57 46 1012 1009 21 3 29 0.00
2017-1-16 6.6 4.3 2.1 -2.7 -3.7 -4.5 65 58 48 1011 1007 18 2 26 0.00
2017-1-17 5.5 3.9 2.3 -2.1 -3.1 -4.4 67 60 56 1012 1006 37 4 42 0.00
2017-1-18 6.2 4.9 3.8 -1.3 -2.1 -3.2 64 61 57 1019 1011 27 4 40 0.00
2017-1-19 8.4 6.0 3.5 0.2 -1.1 -2.0 70 62 53 1027 1019 19 3 31 0.00
2017-1-20 11.1 7.6 4.1 1.1 -0.8 -2.7 65 59 49 1029 1027 16 2 23 0.00
2017-1-21 11.8 8.2 4.6 2.4 0.8 -0.8 72 63 51 1027 1023 21 4 31 0.00
2017-1-22 11.4 9.4 7.4 4.3 2.7 1.1 69 64 58 1023 1020 27 5 35 0.00
2017-1-23 13.9 11.4 8.9 5.5 4.3 3.3 71 66 56 1020 1014 23 4 29 0.00
2017-1-24 14.3 10.9 7.6 5.1 3.2 -1.6 77 59 40 1015 1013 10 1 16 0.00
2017-1-25 15.1 9.2 3.2 -0.4 -2.0 -4.4 70 48 28 1022 1015 11 1 18 0.00
2017-1-26 14.7 8.4 2.1 6.8 0.9 -4.3 94 66 48 1027 1021 6 0 11 0.00
2017-1-27 13.5 9.6 5.7 6.6 5.1 2.3 93 77 62 1027 1024 8 1 14 0.00
2017-1-28 14.0 8.8 3.7 8.1 4.5 1.4 87 74 58 1024 1020 10 1 18 0.00
2017-1-29 15.4 8.8 2.3 8.9 3.9 0.8 94 80 55 1024 1022 8 0 13 0.00
2017-1-30 13.6 8.1 2.6 9.3 5.8 1.6 96 89 73 1024 1022 6 0 11 0.41
2017-1-31 14.0 9.6 5.1 9.8 8.0 4.3 96 88 70 1023 1022 5 0 10 0.00
2017-2-1 16.0 12.8 9.6 11.4 10.1 8.3 95 88 72 1022 1021 6 0 13 0.13
2017-2-2 14.4 13.2 11.9 12.1 11.2 10.6 94 90 84 1022 1019 10 1 14 0.23
2017-2-3 15.2 13.2 11.2 11.9 10.9 9.4 92 87 79 1019 1011 13 1 31 0.33
2017-2-4 13.6 9.8 6.0 12.6 8.3 5.1 96 87 66 1013 1007 11 1 21 0.13
2017-2-5 14.3 11.4 8.6 12.1 9.6 5.7 95 89 75 1011 998 16 1 23 1.75
2017-2-6 11.9 9.6 7.1 8.6 7.0 5.2 95 85 71 1007 996 13 1 21 0.79
2017-2-7 16.6 11.7 6.9 7.3 5.2 3.5 85 72 52 1014 1007 8 0 18 0.00
2017-2-8 11.9 9.7 7.4 5.8 3.9 1.8 77 69 64 1014 1012 18 2 29 0.03
2017-2-9 10.4 8.7 6.9 4.3 2.8 1.4 79 68 62 1016 1013 32 5 34 0.10
2017-2-10 14.4 9.7 4.9 6.6 4.4 2.7 90 71 57 1020 1015 18 2 26 0.00
2017-2-11 16.2 9.9 3.6 9.6 5.9 2.3 95 83 61 1022 1020 6 0 11 0.00
2017-2-12 17.3 12.9 8.4 9.8 8.2 6.8 93 79 56 1026 1022 8 1 18 0.00
2017-2-13 16.3 12.2 8.2 9.5 8.1 6.4 94 81 59 1027 1025 6 0 14 0.00
2017-2-14 17.5 11.2 5.0 7.9 5.1 3.1 91 70 45 1034 1027 16 1 19 0.00
2017-2-15 16.0 9.0 2.1 8.2 3.2 -1.0 93 72 40 1035 1033 6 0 11 0.00
2017-2-16 16.9 8.7 0.4 9.4 4.4 -0.8 95 82 54 1034 1030 8 0 16 0.00
2017-2-17 16.3 10.1 3.8 10.4 7.4 3.1 97 87 62 1031 1022 8 0 16 0.03
2017-2-18 15.1 10.7 6.3 8.8 3.5 -0.7 95 64 39 1024 1021 16 2 26 0.58
2017-2-19 15.6 8.7 1.8 3.6 0.4 -1.1 83 60 37 1026 1023 10 0 14 0.00
2017-2-20 15.0 8.3 1.7 6.1 0.3 -0.9 91 75 52 1024 1022 6 0 13 0.00
2017-2-21 15.6 8.7 1.8 9.1 1.9 0.8 95 83 58 1023 1020 6 0 13 0.00
2017-2-22 12.3 10.2 8.0 10.2 3.9 6.4 94 90 85 1021 1019 6 1 13 0.03
2017-2-23 17.2 13.2 9.3 11.3 2.1 7.7 93 85 64 1020 1015 6 0 11 0.00
2017-2-24 13.6 12.1 10.5 12.4 5.7 9.4 96 94 91 1015 1005 13 1 21 2.49
2017-2-25 14.5 11.8 9.2 11.3 -3.7 -6.5 96 64 31 1019 1007 40 3 43 1.35
2017-2-26 16.3 9.4 2.6 4.6 -2.9 -7.1 82 54 31 1020 1017 11 0 14 0.00
2017-2-27 16.7 9.0 1.3 9.2 1.3 -1.3 95 78 47 1019 1015 8 0 14 0.00
2017-2-28 13.7 10.4 7.2 11.3 4.9 6.0 93 84 73 1015 1006 18 2 37 0.13
2017-3-1 16.1 12.8 9.4 8.7 0.9 4.5 87 69 48 1018 1005 16 2 23 0.10
2017-3-2 17.4 11.8 6.1 10.7 7.4 4.4 92 76 52 1020 1017 11 1 19 0.00
2017-3-3 17.1 13.0 8.9 11.6 9.4 7.5 94 84 66 1020 1014 8 1 14 0.00
2017-3-4 14.1 11.2 8.3 12.3 8.6 6.2 94 82 64 1014 1007 16 3 35 0.13
2017-3-5 14.8 11.2 7.7 9.7 7.3 5.8 95 85 58 1013 1010 16 1 27 2.18
2017-3-6 15.3 11.8 8.2 9.8 8.4 6.6 91 80 61 1012 997 19 2 47 1.42
2017-3-7 17.2 11.8 6.5 8.7 3.5 -2.8 94 63 28 1012 998 18 2 27 0.20
2017-3-8 17.3 10.4 3.4 4.4 -0.9 -4.1 79 45 24 1021 1012 18 3 32 0.00
2017-3-9 18.7 10.5 2.3 9.3 2.7 -1.7 79 60 38 1021 1016 10 1 16 0.00
2017-3-10 22.0 12.6 3.2 8.3 0.9 -5.8 89 52 17 1018 1013 26 2 31 0.00
2017-3-11 18.8 11.2 3.7 4.7 -1.7 -6.1 76 42 22 1020 1017 14 1 23 0.00
2017-3-12 16.9 10.4 3.8 7.1 0.6 -6.4 92 56 31 1017 1013 11 1 18 0.00
2017-3-13 18.8 10.6 2.4 8.9 3.1 0.3 92 67 31 1026 1015 13 1 19 0.00
2017-3-14 19.9 11.6 3.3 5.3 0.1 -3.9 81 50 22 1028 1026 10 1 18 0.00
2017-3-15 21.4 12.5 3.6 5.3 1.6 -0.6 77 50 24 1027 1024 10 1 16 0.00
2017-3-16 21.2 12.6 4.0 8.4 3.7 -0.2 81 55 33 1025 1021 10 1 14 0.00
2017-3-17 21.0 12.6 4.1 9.9 4.6 1.2 89 64 34 1022 1018 11 1 21 0.00
2017-3-18 20.9 13.6 6.2 11.6 7.6 2.8 92 72 45 1018 1012 11 1 14 0.00
2017-3-19 20.1 13.7 7.3 13.1 10.4 5.7 94 81 59 1014 1012 10 1 14 0.00
2017-3-20 16.9 13.8 10.6 12.0 11.0 9.2 92 83 72 1014 1013 8 1 16 0.00
2017-3-21 19.4 14.6 9.7 13.7 10.9 8.7 94 81 64 1013 1010 8 1 13 0.00
2017-3-22 18.5 13.9 9.4 13.2 11.2 8.4 94 84 64 1016 1011 8 1 13 0.00
2017-3-23 17.1 14.6 12.0 12.6 11.7 10.5 94 87 72 1020 1015 14 1 21 0.00
2017-3-24 21.3 15.9 10.5 13.3 10.7 9.1 94 80 47 1022 1020 13 1 13 0.00
2017-3-25 22.8 15.6 8.3 12.2 9.4 6.6 93 74 45 1021 1017 11 1 23 0.76
2017-3-26 17.3 11.2 5.0 10.8 7.7 4.1 97 80 54 1020 1018 13 1 19 0.13
2017-3-27 17.5 11.9 6.3 7.9 1.9 -4.2 94 56 33 1023 1020 18 2 26 0.00
2017-3-28 20.2 11.8 3.4 7.2 0.7 -4.4 86 48 23 1024 1022 16 2 23 0.00
2017-3-29 22.8 13.1 3.3 12.6 5.8 0.6 88 66 37 1025 1021 10 1 14 0.00
2017-3-30 24.7 14.5 4.3 13.1 7.2 2.5 89 65 29 1025 1023 11 1 19 0.00
2017-3-31 22.9 14.4 5.9 11.9 8.3 4.3 92 72 39 1025 1020 13 1 14 0.00
2017-4-1 20.9 14.2 7.5 10.3 7.3 1.8 93 69 29 1020 1013 16 1 21 0.00
2017-4-2 17.3 14.6 11.9 11.9 9.8 6.8 93 78 59 1015 1011 10 1 13 0.23
2017-4-3 23.1 17.1 11.1 11.4 8.3 6.0 92 60 35 1016 1013 23 2 27 0.00
2017-4-4 24.8 16.2 7.6 12.3 8.1 5.6 88 63 36 1016 1014 16 1 19 0.00
2017-4-5 22.0 15.2 8.4 13.3 8.9 5.8 90 71 50 1017 1014 11 1 21 0.23
2017-4-6 19.6 13.3 6.9 12.8 8.9 5.9 95 83 50 1018 1014 8 1 21 1.09
2017-4-7 20.2 13.2 6.3 11.3 8.0 5.4 95 73 50 1020 1017 14 1 18 0.03
2017-4-8 22.9 14.5 6.0 12.7 7.7 4.5 91 68 36 1023 1020 13 1 18 0.00
2017-4-9 25.0 15.6 6.1 11.7 7.2 3.7 86 62 34 1025 1022 11 1 21 0.00
2017-4-10 25.1 16.1 7.0 11.3 7.2 5.6 92 60 32 1023 1020 8 1 19 0.00
2017-4-11 23.1 15.4 7.8 13.1 8.4 4.1 90 64 40 1020 1016 13 1 18 0.00
2017-4-12 24.3 16.2 8.1 14.7 9.2 6.0 90 66 35 1019 1015 11 1 16 0.00
2017-4-13 22.6 15.3 8.0 14.8 11.5 6.9 94 79 52 1016 1012 16 1 18 0.00
2017-4-14 22.1 15.6 9.1 14.6 11.9 8.0 95 80 58 1015 1013 11 1 18 0.03
2017-4-15 21.4 17.2 12.9 15.6 13.2 11.5 93 81 64 1014 1012 19 1 19 0.00
2017-4-16 24.2 17.5 10.8 13.6 11.4 9.6 95 72 45 1013 1010 13 1 23 0.00
2017-4-17 22.4 16.1 9.8 10.3 7.8 4.6 93 62 32 1014 1011 11 1 19 0.00
2017-4-18 20.3 14.3 8.3 14.1 8.2 2.0 95 74 55 1013 1006 19 2 29 0.10
2017-4-19 16.2 11.0 5.8 1.7 -1.7 -6.2 68 45 23 1020 1013 19 3 26 0.00
2017-4-20 16.3 9.9 3.6 1.6 -2.0 -7.1 71 46 20 1026 1020 16 1 21 0.00
2017-4-21 17.3 9.9 2.4 4.8 0.5 -3.8 77 52 32 1028 1026 18 1 23 0.00
2017-4-22 18.9 11.5 4.1 9.3 5.9 2.1 92 70 40 1027 1020 13 1 19 0.00
2017-4-23 21.2 13.4 5.6 10.9 6.9 2.9 93 68 33 1020 1017 11 1 21 0.00
2017-4-24 19.8 15.0 10.2 11.3 10.0 8.5 92 75 51 1020 1018 19 1 21 0.00
2017-4-25 20.1 15.2 10.4 12.7 11.0 9.5 94 80 58 1018 1013 14 2 19 0.00
2017-4-26 16.9 15.2 13.5 14.1 12.9 11.2 87 84 78 1013 1009 21 3 26 0.03
2017-4-27 20.2 16.2 12.2 15.4 14.3 11.2 95 87 69 1010 1006 14 2 23 0.71
2017-4-28 17.1 12.3 7.4 11.2 7.3 3.9 94 71 45 1013 1007 13 1 23 0.00
2017-4-29 21.1 12.8 4.4 9.4 4.9 2.0 95 61 31 1015 1013 14 1 16 0.00
2017-4-30 21.7 13.2 4.8 6.5 3.9 1.1 79 53 33 1015 1012 11 1 19 0.00
2017-5-1 18.3 12.3 6.3 14.1 8.1 3.2 94 76 55 1016 1011 13 1 26 0.97
2017-5-2 20.2 14.1 7.9 10.3 8.1 6.4 91 69 42 1019 1016 10 1 19 0.00
2017-5-3 22.2 15.4 8.6 10.5 8.3 6.1 90 62 37 1019 1017 13 1 18 0.00
2017-5-4 20.9 16.1 11.3 14.0 11.8 9.7 95 77 53 1018 1015 13 1 19 0.53
2017-5-5 22.4 16.6 10.6 13.2 11.4 8.8 96 74 49 1016 1015 14 1 19 0.00
2017-5-6 22.7 17.3 11.9 15.6 12.3 9.3 92 78 53 1016 1007 18 2 45 0.58
2017-5-7 21.7 16.3 10.9 12.6 11.3 9.2 91 71 52 1012 1009 14 2 24 0.00
2017-5-8 23.0 15.7 8.4 14.7 10.7 7.1 95 75 43 1011 1008 11 1 16 0.61
2017-5-9 23.0 17.1 11.1 13.8 11.2 8.8 92 72 44 1010 1007 13 1 19 0.00
2017-5-10 22.8 16.4 10.0 14.7 11.8 8.3 92 75 49 1011 1009 11 1 21 0.00
2017-5-11 24.4 19.1 13.8 15.1 12.4 9.2 89 70 48 1011 1004 16 2 24 0.00
2017-5-12 23.2 18.2 13.2 17.1 14.9 12.1 95 83 58 1011 1006 6 0 11 0.08
2017-5-13 25.7 19.1 12.4 16.5 13.8 11.0 96 73 42 1019 1011 13 1 21 0.03
2017-5-14 26.0 19.0 12.0 16.5 13.6 10.7 94 72 47 1023 1019 11 1 18 0.00
2017-5-15 27.4 19.2 10.9 16.8 13.3 9.5 92 69 44 1024 1021 13 1 21 0.00
2017-5-16 28.1 20.7 13.2 13.6 11.9 8.8 90 58 37 1025 1022 14 2 24 0.00
2017-5-17 29.5 22.1 14.8 11.9 10.3 8.7 70 46 31 1023 1016 16 2 26 0.00
2017-5-18 27.9 22.6 17.2 14.2 11.3 7.9 74 51 36 1017 1014 13 2 23 0.00
2017-5-19 25.6 20.8 16.1 17.3 13.1 9.8 89 64 39 1015 1013 13 2 23 0.00
2017-5-20 23.4 19.0 14.6 13.1 11.6 6.8 87 68 35 1017 1015 21 2 26 0.00
2017-5-21 27.4 20.9 14.4 13.7 11.3 8.2 90 60 32 1019 1017 18 2 27 0.00
2017-5-22 27.1 19.7 12.2 14.1 11.1 8.8 81 57 40 1019 1016 13 1 19 0.00
2017-5-23 29.4 19.9 10.3 11.6 8.9 6.5 85 52 28 1018 1016 14 1 21 0.00
2017-5-24 28.2 19.8 11.4 12.4 8.1 3.7 77 50 24 1019 1015 13 1 18 0.00
2017-5-25 29.5 20.1 10.7 17.0 11.3 5.4 81 58 32 1016 1013 10 1 16 0.00
2017-5-26 29.2 23.8 18.3 10.7 8.4 5.3 58 40 29 1017 1015 14 2 26 0.00
2017-5-27 30.0 22.2 14.4 11.9 9.5 5.8 68 45 29 1020 1017 13 1 19 0.00
2017-5-28 31.6 23.9 16.2 14.2 11.2 8.0 68 46 32 1021 1017 11 1 18 0.00
2017-5-29 28.9 22.1 15.3 16.3 13.3 10.2 83 58 35 1018 1016 16 2 19 0.00
2017-5-30 27.3 20.9 14.4 15.7 12.5 9.1 85 60 33 1019 1016 10 1 19 0.00
2017-5-31 28.3 21.4 14.6 16.9 13.9 10.9 89 66 34 1021 1019 11 1 23 0.00
2017-6-1 27.8 21.4 14.9 16.7 12.8 7.8 86 61 29 1021 1019 19 1 19 0.00
2017-6-2 27.4 20.1 12.8 17.8 14.5 9.9 93 72 34 1020 1016 11 1 21 0.00
2017-6-3 30.5 21.9 13.3 18.5 14.3 11.4 94 65 33 1017 1014 11 1 21 0.00
2017-6-4 29.3 21.8 14.4 19.2 15.5 11.2 89 68 45 1015 1011 13 1 16 0.00
2017-6-5 27.9 22.3 16.7 19.3 17.8 15.4 94 76 52 1013 1010 14 1 19 0.00
2017-6-6 26.3 22.2 18.1 18.9 17.6 16.4 92 80 58 1011 1009 11 1 19 0.00
2017-6-7 28.2 21.8 15.4 16.9 13.8 11.2 93 67 38 1016 1011 18 2 23 0.00
2017-6-8 31.4 21.4 11.4 14.2 11.3 8.2 86 54 27 1018 1015 13 1 23 0.00
2017-6-9 30.1 22.7 15.2 19.1 12.2 8.4 78 50 31 1016 1014 13 1 18 0.00
2017-6-10 29.6 22.2 14.7 16.1 12.9 9.4 83 58 34 1017 1015 13 1 21 0.00
2017-6-11 34.5 24.9 15.4 14.2 12.0 9.9 72 46 25 1017 1014 13 1 18 0.00
2017-6-12 31.7 25.2 18.8 18.6 13.1 8.2 82 48 25 1016 1014 14 2 21 0.00
2017-6-13 30.7 24.0 17.3 18.9 16.1 12.6 88 62 36 1015 1014 11 1 16 0.00
2017-6-14 30.8 24.9 18.9 20.4 17.7 8.7 91 67 26 1015 1013 11 1 16 0.00
2017-6-15 32.5 24.9 17.4 20.7 16.8 13.4 94 62 36 1015 1014 10 1 23 0.00
2017-6-16 33.7 26.2 18.6 21.2 17.8 13.8 80 60 43 1016 1012 13 1 18 0.00
2017-6-17 35.0 26.8 18.6 23.9 19.3 10.9 86 65 38 1013 1010 11 1 18 0.03
2017-6-18 31.3 26.9 22.4 14.2 10.8 8.0 53 38 28 1019 1013 18 3 27 0.00
2017-6-19 32.9 26.2 19.4 14.1 11.4 8.7 65 41 27 1021 1018 14 2 18 0.00
2017-6-20 31.3 23.8 16.3 19.1 14.3 11.1 79 55 31 1020 1017 13 1 21 0.00
2017-6-21 31.1 23.7 16.3 20.5 17.1 13.3 85 66 39 1018 1015 13 1 18 0.00
2017-6-22 32.6 24.6 16.7 21.1 16.8 13.0 85 62 35 1018 1016 13 1 19 0.00
2017-6-23 34.1 25.4 16.8 20.6 15.6 12.9 81 56 32 1019 1017 14 1 19 0.00
2017-6-24 33.7 26.6 19.5 19.4 16.9 14.4 86 56 33 1018 1014 10 1 18 0.00
2017-6-25 32.6 26.8 21.1 23.4 21.4 17.2 92 75 52 1016 1011 13 1 16 0.00
2017-6-26 33.2 26.2 19.3 22.3 19.7 16.3 92 68 38 1013 1010 14 1 21 0.00
2017-6-27 32.4 27.8 23.2 22.8 20.9 19.2 90 70 50 1010 1006 14 2 24 0.00
2017-6-28 31.7 26.0 20.3 22.2 20.7 17.6 92 76 44 1007 999 29 2 32 1.22
2017-6-29 29.4 24.2 18.9 19.8 17.4 11.7 95 71 34 1009 1002 13 1 23 0.13
2017-6-30 24.1 20.1 16.2 18.3 15.9 13.8 95 81 61 1013 1009 5 0 11 1.83
2017-7-1 26.7 20.9 15.0 16.9 14.8 12.8 96 71 47 1015 1013 13 2 21 0.03
2017-7-2 28.6 21.8 15.1 17.5 14.6 10.8 90 65 37 1016 1013 13 1 19 0.00
2017-7-3 32.4 24.1 15.8 16.9 13.7 10.9 85 54 29 1019 1016 21 1 26 0.00
2017-7-4 32.8 24.2 15.7 16.8 13.4 10.7 77 51 31 1020 1018 13 1 21 0.00
2017-7-5 34.4 25.4 16.4 13.5 11.7 9.2 68 43 26 1020 1017 19 1 19 0.00
2017-7-6 35.1 25.7 16.3 15.4 12.1 9.7 73 44 25 1020 1018 16 1 21 0.00
2017-7-7 35.3 26.5 17.7 14.9 11.7 8.7 62 41 20 1020 1016 14 1 21 0.00
2017-7-8 36.4 27.7 19.0 17.0 13.0 10.6 68 42 23 1017 1014 10 1 19 0.00
2017-7-9 34.8 27.7 20.5 21.4 16.4 10.2 87 55 29 1015 1011 19 1 21 0.00
2017-7-10 32.8 27.4 22.1 22.5 19.5 14.6 84 64 46 1014 1011 13 1 18 0.00
2017-7-11 31.3 26.3 21.2 22.4 20.7 17.7 94 75 49 1015 1014 16 1 21 0.00
2017-7-12 33.6 26.9 20.3 22.2 19.2 15.3 95 65 37 1015 1012 19 1 24 0.00
2017-7-13 35.3 27.9 20.4 20.6 18.1 15.6 84 59 33 1013 1010 16 1 21 0.00
2017-7-14 33.6 26.0 18.4 22.1 18.9 16.4 90 65 40 1011 1008 14 1 23 0.00
2017-7-15 35.2 27.7 20.1 21.7 14.9 9.2 87 49 24 1013 1009 14 2 23 0.00
2017-7-16 30.3 24.7 19.1 13.5 9.2 5.5 58 37 23 1020 1013 19 3 34 0.00
2017-7-17 33.3 25.6 17.8 16.9 9.6 6.7 68 39 20 1020 1016 14 2 29 0.00
2017-7-18 31.8 24.4 17.1 15.9 10.8 5.7 74 42 29 1019 1016 10 1 18 0.00
2017-7-19 29.9 23.9 17.8 19.3 15.4 11.6 80 59 39 1018 1016 14 1 21 0.00
2017-7-20 29.9 23.9 18.0 20.3 18.0 14.0 92 71 46 1016 1012 11 1 18 0.00
2017-7-21 32.9 26.4 19.9 19.9 17.1 11.6 93 62 29 1014 1011 14 2 23 0.00
2017-7-22 31.1 26.7 22.3 23.3 21.3 17.3 91 74 59 1015 1012 16 2 23 0.00
2017-7-23 32.6 26.7 20.8 22.6 20.9 19.1 93 70 47 1016 1012 16 1 18 0.00
2017-7-24 33.1 27.9 22.7 21.1 18.3 13.2 87 61 34 1014 1004 21 2 23 0.00
2017-7-25 29.0 24.4 19.8 20.6 17.3 14.1 89 68 46 1005 1003 8 1 16 0.84
2017-7-26 31.9 23.7 15.4 18.7 15.7 12.3 86 63 34 1009 1005 13 1 19 0.00
2017-7-27 31.0 23.7 16.3 21.3 17.8 14.8 93 71 42 1012 1008 19 1 19 0.00
2017-7-28 33.3 26.2 19.1 22.1 18.9 14.9 91 69 34 1015 1011 16 1 18 0.00
2017-7-29 33.5 26.4 19.3 22.0 20.0 16.8 92 72 38 1017 1015 14 1 26 0.00
2017-7-30 31.4 26.2 21.1 22.3 20.6 17.8 92 73 48 1017 1014 13 2 18 0.00
2017-7-31 35.2 27.3 19.5 20.6 17.3 14.3 92 60 32 1017 1015 10 1 18 0.00
2017-8-1 36.9 28.6 20.2 17.1 14.8 10.7 71 46 26 1018 1015 11 1 18 0.00
2017-8-2 40.7 31.2 21.8 18.0 13.7 10.4 60 39 17 1019 1016 13 1 21 0.00
2017-8-3 40.2 31.3 22.3 17.2 13.4 10.3 55 36 18 1017 1013 13 1 19 0.00
2017-8-4 41.1 31.4 21.8 18.9 12.8 10.1 58 36 16 1014 1011 11 1 16 0.00
2017-8-5 38.3 30.2 22.1 21.4 16.3 13.2 62 45 26 1012 1010 13 1 19 0.00
2017-8-6 36.9 29.0 21.0 22.1 18.6 15.7 76 54 34 1012 1009 16 1 23 0.00
2017-8-7 36.9 29.4 21.8 19.8 17.1 13.9 69 49 28 1013 1011 10 1 19 0.00
2017-8-8 34.4 27.4 20.5 21.6 18.1 14.7 75 57 34 1013 1011 13 1 18 0.00
2017-8-9 34.3 29.5 24.8 24.3 21.8 18.3 86 67 42 1013 1012 18 2 18 0.00
2017-8-10 31.1 26.8 22.4 25.3 21.3 13.5 91 74 42 1014 1010 13 2 26 0.13
2017-8-11 29.6 24.3 19.0 16.2 14.1 12.2 71 56 36 1014 1011 16 2 23 0.00
2017-8-12 27.2 21.2 15.2 16.7 14.4 12.0 92 69 43 1016 1012 14 1 18 1.24
2017-8-13 32.4 23.4 14.3 17.9 14.0 11.1 89 59 29 1018 1016 16 1 19 0.00
2017-8-14 33.9 25.2 16.4 14.4 12.1 9.7 76 47 24 1019 1017 13 1 23 0.00
2017-8-15 34.9 25.8 16.7 14.2 11.4 5.9 71 44 17 1020 1017 13 1 19 0.00
2017-8-16 35.9 26.2 16.6 15.3 10.4 7.1 63 41 19 1018 1016 16 1 23 0.00
2017-8-17 36.3 27.1 17.8 18.9 13.7 8.6 70 45 28 1016 1014 11 1 18 0.00
2017-8-18 35.2 27.8 20.4 19.6 17.2 15.4 77 56 31 1016 1013 13 1 19 0.00
2017-8-19 31.8 26.3 20.9 22.6 20.4 16.3 93 75 50 1014 1012 13 1 14 0.00
2017-8-20 33.8 26.6 19.3 20.8 15.2 9.5 91 55 28 1016 1012 13 2 19 0.00
2017-8-21 32.0 25.8 19.6 13.6 10.2 5.3 65 39 25 1017 1014 13 2 27 0.00
2017-8-22 31.4 25.3 19.2 12.3 9.6 5.8 59 38 25 1018 1015 18 2 26 0.00
2017-8-23 32.3 24.1 15.8 15.8 12.3 9.7 74 50 30 1018 1015 18 1 23 0.00
2017-8-24 32.6 24.4 16.3 17.8 12.7 9.2 79 52 30 1020 1017 13 1 18 0.00
2017-8-25 30.7 24.2 17.8 21.9 18.5 15.4 92 73 41 1020 1019 11 1 18 0.00
2017-8-26 33.6 25.1 16.7 20.6 16.7 10.4 93 65 25 1019 1016 11 1 16 0.00
2017-8-27 36.0 26.2 16.3 17.9 13.7 11.1 78 50 26 1017 1014 13 1 21 0.00
2017-8-28 36.1 26.6 17.1 13.6 11.4 8.7 72 43 19 1015 1012 10 1 21 0.00
2017-8-29 36.1 29.1 22.2 15.8 13.2 9.8 61 40 21 1014 1012 13 2 21 0.00
2017-8-30 34.1 27.2 20.3 21.7 15.6 12.4 82 50 29 1015 1013 11 1 16 0.00
2017-8-31 33.6 27.3 21.1 23.8 21.4 17.7 93 79 41 1016 1014 19 1 19 0.00
2017-9-1 30.9 24.8 18.7 22.7 19.9 17.7 95 79 46 1015 1011 13 1 19 4.78
2017-9-2 25.4 19.6 13.7 18.3 14.4 8.3 86 64 46 1012 1008 19 2 34 1.07
2017-9-3 26.3 19.1 11.8 14.1 11.2 7.7 96 67 33 1014 1009 13 1 23 0.38
2017-9-4 26.9 20.1 13.2 14.1 11.8 8.7 85 62 32 1019 1014 10 1 18 0.00
2017-9-5 28.3 21.7 15.2 17.2 14.1 9.8 94 67 32 1021 1019 11 1 19 0.00
2017-9-6 27.8 22.0 16.1 20.0 16.7 13.7 90 73 48 1020 1014 11 1 16 0.00
2017-9-7 28.4 23.9 19.4 19.8 18.5 17.6 92 77 56 1015 1009 8 1 19 0.20
2017-9-8 28.0 22.1 16.3 18.8 17.2 14.6 93 77 45 1012 1010 11 1 14 0.00
2017-9-9 26.5 21.9 17.4 18.6 17.3 15.4 94 79 52 1010 1003 13 2 26 0.00
2017-9-10 23.6 20.7 17.8 20.2 17.5 15.8 91 82 72 1003 999 21 2 35 0.48
2017-9-11 23.9 19.9 15.8 18.9 16.8 14.5 96 88 67 1004 1000 16 1 18 1.04
2017-9-12 26.2 20.5 14.8 15.1 12.9 8.7 93 66 39 1015 1004 16 1 31 0.00
2017-9-13 26.2 20.4 14.6 16.0 13.5 8.4 89 69 33 1020 1015 8 1 14 0.00
2017-9-14 27.8 20.9 14.1 18.3 15.3 11.6 91 73 47 1020 1012 13 1 18 0.00
2017-9-15 26.3 22.7 19.4 18.7 18.1 15.3 93 85 53 1013 1009 11 2 16 0.38
2017-9-21 24.1 16.8 9.6 14.6 11.2 7.6 91 72 41 1020 1018 8 1 16 0.00
2017-9-22 24.3 17.7 10.9 16.3 12.6 9.8 94 78 43 1022 1020 10 1 14 0.00
2017-9-23 23.6 18.2 12.8 15.9 13.8 11.8 96 80 52 1022 1020 10 1 14 0.03
2017-9-24 22.2 18.3 14.3 17.6 15.4 13.6 96 89 68 1020 1017 8 0 10 0.74
2017-9-25 24.2 17.6 11.1 14.2 11.6 9.9 96 71 41 1019 1017 11 1 21 0.03
2017-9-26 23.8 18.4 13.1 13.6 11.5 10.1 82 65 49 1020 1017 13 1 24 0.00
2017-9-27 26.5 19.2 11.8 15.0 11.7 9.8 88 66 38 1022 1020 10 1 21 0.00
2017-9-28 26.5 20.1 13.6 13.6 11.7 9.9 84 60 42 1024 1022 10 1 19 0.00
2017-9-29 26.3 19.3 12.3 12.2 10.4 9.0 81 60 37 1023 1019 13 1 14 0.00
2017-9-30 25.3 18.2 11.2 13.8 10.7 7.7 86 65 38 1020 1016 6 0 13 0.00
2017-10-1 19.6 16.6 13.4 16.5 14.1 11.3 91 85 80 1021 1017 5 0 8 0.15
2017-10-2 25.3 19.5 13.7 16.3 14.0 12.1 93 76 48 1023 1020 10 1 14 0.00
2017-10-3 23.2 18.2 13.1 17.2 15.2 12.3 96 84 59 1023 1019 13 1 16 0.03
2017-10-4 26.1 20.4 14.7 16.3 15.1 12.9 92 75 52 1024 1022 10 0 14 0.00
2017-10-5 25.1 18.7 12.3 18.2 15.3 11.0 94 83 63 1023 1014 10 1 13 0.00
2017-10-6 25.9 19.9 14.0 16.6 14.4 5.4 95 76 51 1014 1005 19 1 39 0.03
2017-10-7 22.9 15.8 8.8 8.4 4.9 0.7 78 51 24 1021 1012 10 1 19 0.00
2017-10-8 24.2 16.3 8.8 13.1 9.4 4.6 85 66 39 1020 1014 6 1 14 0.00
2017-10-9 23.1 17.6 12.1 15.7 12.9 10.1 94 76 54 1017 1015 11 1 18 0.00
2017-10-10 23.2 17.4 11.6 16.0 13.4 10.8 96 82 56 1021 1017 8 0 13 0.03
2017-10-11 25.0 17.8 10.7 14.9 12.1 9.7 95 77 43 1024 1021 8 0 14 0.00
2017-10-12 24.2 17.1 10.0 16.3 12.7 9.1 96 81 56 1026 1024 10 0 19 0.03
2017-10-13 25.3 18.2 11.2 16.8 13.6 10.4 97 81 56 1027 1025 11 0 16 0.03
2017-10-14 26.2 18.2 10.2 16.7 13.0 9.4 97 81 52 1028 1026 6 0 11 0.03
2017-10-15 26.5 17.7 9.0 17.3 12.5 8.2 96 81 49 1029 1027 11 1 14 0.03
2017-10-16 26.0 16.9 7.9 15.1 10.1 6.7 95 73 39 1028 1026 6 0 10 0.03
2017-10-17 24.7 16.6 8.3 14.4 9.7 5.9 89 74 43 1027 1023 8 0 13 0.00
2017-10-18 22.2 15.8 9.4 15.2 11.9 7.8 96 84 60 1023 1018 6 1 16 0.03
2017-10-19 23.5 16.7 9.8 15.7 12.8 9.0 97 85 56 1019 1016 6 0 13 0.03
2017-10-20 23.6 17.5 11.4 15.9 13.6 10.8 97 83 53 1021 1017 8 1 11 0.05
2017-10-21 23.3 19.1 14.8 17.4 15.8 13.9 95 87 65 1022 1020 8 1 11 0.00
2017-10-22 23.6 19.0 14.4 18.1 13.6 7.7 97 77 41 1019 1009 10 2 27 0.03
2017-10-23 20.9 13.6 6.3 12.3 6.4 1.3 87 63 28 1016 1010 13 1 19 0.03
2017-10-24 23.4 15.4 7.4 6.8 2.6 -1.1 89 48 20 1022 1015 18 2 24 0.00
2017-10-25 24.3 16.1 7.7 9.9 3.8 0.3 67 48 27 1025 1022 8 1 13 0.00
2017-10-26 23.4 15.6 7.8 14.7 7.3 3.3 91 66 33 1027 1025 6 0 14 0.00
2017-10-27 20.6 14.3 7.9 15.1 11.3 5.7 96 82 65 1026 1013 5 0 10 0.00
2017-10-28 22.2 15.0 7.8 12.7 5.8 1.5 90 57 26 1021 1016 11 1 23 0.00
2017-10-29 20.6 14.9 9.1 12.9 9.5 3.9 92 73 55 1016 1007 6 0 13 0.00
2017-10-30 20.9 15.7 10.5 12.8 10.6 8.3 93 76 55 1018 1008 8 1 16 0.00
2017-10-31 21.6 15.8 9.9 10.6 7.4 4.3 75 58 42 1023 1018 11 1 18 0.00
2017-11-1 20.9 13.3 5.8 9.4 5.0 2.6 83 61 36 1024 1022 6 0 14 0.00
2017-11-2 19.2 13.1 6.9 13.6 10.2 4.1 94 83 68 1024 1018 6 1 11 0.00
2017-11-3 20.9 16.4 12.0 15.7 13.5 10.6 94 85 64 1018 1015 8 0 10 0.00
2017-11-4 19.4 15.3 11.1 14.6 12.9 9.9 97 87 67 1019 1016 8 1 13 0.03
2017-11-5 17.2 14.4 11.7 16.3 12.9 11.1 97 90 81 1016 1004 26 2 32 8.03
2017-11-6 14.6 12.3 10.1 11.7 9.1 6.0 97 83 69 1009 1004 14 1 19 0.58
2017-11-7 17.0 12.3 7.7 9.2 6.9 5.5 91 78 50 1012 1008 11 1 23 0.03
2017-11-8 16.9 11.0 5.2 10.6 8.0 4.1 95 84 57 1017 1012 6 0 10 0.03
2017-11-9 15.2 11.8 8.5 10.8 9.2 7.1 93 86 71 1020 1017 6 0 11 0.30
2017-11-10 18.1 13.3 8.5 9.7 8.5 6.8 90 76 57 1019 1016 11 1 31 0.00
2017-11-11 18.7 12.3 6.0 10.1 7.6 5.1 95 81 49 1016 1013 8 0 10 0.03
2017-11-12 15.6 11.6 7.6 13.8 10.1 6.1 94 89 80 1013 997 8 1 19 0.10
2017-11-13 13.9 9.4 4.9 11.9 5.1 2.2 95 83 66 1004 992 24 3 34 0.43
2017-11-14 12.8 9.3 5.8 4.6 3.3 2.6 81 67 56 1013 1004 24 3 34 0.00
2017-11-15 15.8 12.6 9.4 6.9 4.8 2.8 72 64 54 1016 1011 29 3 40 0.00
2017-11-16 18.8 13.3 7.8 7.6 5.6 3.6 78 65 45 1017 1014 13 1 29 0.00
2017-11-17 18.8 13.6 8.3 8.2 6.2 4.3 79 66 49 1016 1014 11 1 19 0.00
2017-11-18 16.4 9.8 3.3 7.4 5.0 1.7 91 75 51 1017 1015 6 0 14 0.00
2017-11-19 15.2 9.0 2.8 9.9 5.9 1.4 94 87 70 1017 1013 8 0 11 0.00
2017-11-20 16.5 10.4 4.3 7.3 3.3 -0.9 95 71 32 1021 1017 5 0 11 0.03
2017-11-21 17.2 12.4 7.8 10.2 7.8 5.2 94 77 61 1021 1019 8 1 11 0.00
2017-11-22 17.5 12.9 8.3 11.9 10.1 7.4 95 83 67 1021 1019 10 1 13 0.00
2017-11-23 18.0 13.2 8.4 13.1 10.8 7.5 97 90 70 1022 1019 10 0 16 0.03
2017-11-24 18.1 14.3 10.7 13.6 11.7 9.9 97 90 72 1022 1021 6 0 11 0.05
2017-11-25 16.9 14.3 11.7 13.7 12.3 10.5 96 89 72 1021 1011 13 1 18 0.00
2017-11-26 13.9 9.0 4.1 10.3 4.3 -0.1 79 68 56 1021 1011 27 2 35 0.00
2017-11-27 12.1 6.1 0.1 1.1 -1.9 -5.7 84 61 29 1025 1021 6 0 14 0.00
2017-11-28 12.6 6.2 -0.1 6.9 -0.3 -3.9 90 66 44 1023 1011 8 1 18 0.08
2017-11-29 13.7 11.1 8.5 10.9 9.1 7.1 96 88 74 1011 1001 16 1 27 2.11
2017-11-30 12.2 7.9 3.6 7.9 3.9 1.2 97 83 54 1008 1000 13 1 24 0.03
2017-12-1 12.1 7.3 2.6 5.8 3.0 0.2 92 84 57 1010 1007 6 0 18 0.23
2017-12-2 9.8 7.9 5.9 3.9 2.7 0.9 83 70 61 1011 1007 27 5 40 0.00
2017-12-3 11.1 7.2 3.3 1.6 0.1 -1.5 71 63 49 1022 1011 18 1 26 0.00
2017-12-4 11.7 5.6 -0.6 0.0 -2.4 -7.3 86 65 26 1030 1022 8 0 13 0.00
2017-12-5 14.6 7.7 0.8 8.3 3.2 -1.4 95 83 59 1035 1030 6 0 10 0.00
2017-12-6 14.7 8.7 2.8 8.9 5.1 1.9 96 88 66 1036 1034 5 0 10 0.03
2017-12-7 13.9 9.1 4.3 9.3 6.3 3.1 94 86 73 1034 1028 10 0 14 0.00
2017-12-8 13.7 9.9 6.1 10.9 8.6 3.7 96 87 64 1028 1009 14 1 27 0.03
2017-12-9 10.8 4.5 -1.8 4.4 -2.9 -9.4 76 53 25 1018 1007 13 2 34 0.00
2017-12-10 14.2 6.3 -1.6 11.7 1.4 -6.3 95 73 49 1018 1005 16 2 40 0.56
2017-12-11 15.9 15.1 14.3 12.5 11.8 10.8 86 80 73 1005 1000 26 5 39 0.00
2017-12-12 16.9 12.9 8.9 12.6 9.9 8.1 95 89 72 1016 1002 31 2 35 1.30
2017-12-13 14.1 9.8 5.6 9.3 5.7 1.8 96 78 44 1018 1015 10 1 19 0.00
2017-12-14 15.0 11.1 7.2 11.9 8.1 3.9 96 83 70 1016 1008 8 1 18 0.00
2017-12-15 13.4 11.1 8.7 12.8 9.2 5.1 97 92 70 1008 998 16 1 26 0.20
2017-12-16 11.4 7.3 3.2 6.4 3.8 1.3 94 79 63 1012 1000 13 1 29 0.74
2017-12-17 11.4 5.4 -0.6 2.0 -0.8 -2.9 86 69 39 1023 1012 10 1 14 0.00
2017-12-18 10.0 4.1 -1.8 0.8 -1.8 -4.7 86 72 49 1026 1022 5 0 10 0.00
2017-12-19 8.8 3.8 -1.2 -0.8 -2.7 -4.1 83 63 43 1031 1026 19 1 19 0.00
2017-12-20 9.1 4.1 -1.0 -0.7 -2.8 -4.2 82 62 47 1032 1029 14 1 23 0.00
2017-12-21 11.3 4.6 -2.2 -0.8 -2.4 -4.3 87 70 38 1033 1030 8 0 14 0.00
2017-12-22 15.6 7.2 -1.2 2.7 -1.2 -3.4 86 63 34 1030 1027 10 0 19 0.00
2017-12-23 16.1 8.6 1.2 3.5 0.5 -1.7 83 66 36 1031 1028 5 0 10 0.00
2017-12-24 14.7 7.9 1.1 10.2 5.2 -1.4 97 84 68 1031 1029 11 1 16 0.00
2017-12-25 12.7 10.4 8.2 8.6 7.7 6.4 90 84 76 1030 1024 5 0 8 0.00
2017-12-26 14.2 11.3 8.4 9.7 8.0 6.9 94 86 66 1024 1009 6 1 13 0.30
2017-12-27 12.3 9.9 7.6 9.9 8.8 6.5 96 90 81 1009 989 16 2 35 2.79
2017-12-28 9.5 5.8 2.2 6.4 3.8 0.7 96 89 74 1001 986 18 0 27 1.35
2017-12-29 11.2 5.3 -0.6 2.9 0.2 -1.7 93 76 43 1015 1001 5 0 10 0.08
2017-12-30 10.2 7.4 4.6 7.7 5.1 1.9 94 84 69 1020 1013 10 1 16 0.15
2017-12-31 14.6 11.6 8.5 11.4 9.2 6.8 95 87 75 1022 1017 8 1 13 0.00
2018-1-1 13.7 12.0 10.2 11.9 8.8 4.7 94 81 61 1017 1009 24 2 35 0.33